RJFM

Miyazaki Airport

Miyazaki, Japan
TAF RJFM 252306Z 2600/2706 06010KT 9999 FEW030 BECMG 2610/2612 28008KT BECMG 2700/2703 10008KT
Issued Valid From Valid To
Apr-25 @ 23:06 UTC
(5 hours ago)
Apr-26 @ 00:00 UTC
(4 hours ago)
Apr-27 @ 06:00 UTC
(-1 days ago)
Apr-26 @ 00:00 to Apr-26 @ 10:00
TAF RJFM 252306Z 2600/2706 06010KT 9999 FEW030
Wind Visibility Clouds
60° at 10 knots 10,000+ meters
  • Few at 3,000' AGL
Becoming Apr-26 @ 10:00 to Apr-27 @ 00:00
BECMG 2610/2612 28008KT
Wind Visibility Clouds
280° at 8 knots 10,000+ meters
  • Few at 3,000' AGL
Becoming Apr-27 @ 00:00 to Apr-27 @ 06:00
BECMG 2700/2703 10008KT
Wind Visibility Clouds
100° at 8 knots 10,000+ meters
  • Few at 3,000' AGL
TAF RJFM 252306Z 2600/2706 06010KT 9999 FEW030 BECMG 2610/2612 28008KT BECMG 2700/2703 10008KT
Issued Apr-25 @ 23:06 UTC
(5 hours ago)
Valid From Apr-26 @ 00:00 UTC
(4 hours ago)
Valid To Apr-27 @ 06:00 UTC
(-1 days ago)
Apr-26 @ 00:00 - Apr-26 @ 10:00
Wind Visibility
60° at 10 knots 10,000+ meters
Clouds
  • Few at 3,000' AGL
Becoming Apr-26 @ 10:00 - Apr-27 @ 00:00
Wind Visibility
280° at 8 knots 10,000+ meters
Clouds
  • Few at 3,000' AGL
Becoming Apr-27 @ 00:00 - Apr-27 @ 06:00
Wind Visibility
100° at 8 knots 10,000+ meters
Clouds
  • Few at 3,000' AGL